Akiak, AK (99552)

8:38 PM AKDT on May 03, 2015 (GMT -0800)
Kwethluk AP, Kwethluk, AK | | Change Station
CLOSE
Current Station
Airport
Location: Kwethluk AP, Kwethluk, AK,
Elevation: 26 ft
Nearby Weather Stations

Elev 26 ft 60.79 °N, 161.44 °W | Updated 42 minutes ago

Partly Cloudy
Partly Cloudy
45 °F
Feels Like 43 °F
N
5
Wind Variable Wind from SSE

Today
High -- | Low -- °F
--% Chance of Precip.
Yesterday
High -- | Low -- °F
Precip. -- in
6:32 AM 10:52 PM
Full, 100% visible
Pressure 30.09 in
Visibility 10.0 miles
Clouds Few 3900 ft
Windchill 43 °F
Dew Point 37 °F
Humidity 74%
Rainfall 0.08 in
Snow Depth Not available.
UV 1 out of 12
Pollen Not available.
Air Quality Not available.
Flu Activity Sporadic
METAR PFKW 040356Z AUTO 16004KT 10SM FEW039 07/03 A3009 RMK AO2 SLP190 T00720028 $

More Conditions Fewer Conditions

Pressure 30.09 in
Visibility 10.0 miles
Clouds Few 3900 ft
Windchill 43 °F
Dew Point 37 °F
Humidity 74%
Rainfall 0.08 in
Snow Depth Not available.
UV 1 out of 12
Pollen Not available.
Air Quality Not available.
Flu Activity Sporadic
METAR PFKW 040356Z AUTO 16004KT 10SM FEW039 07/03 A3009 RMK AO2 SLP190 T00720028 $

More Conditions Fewer Conditions

10-Day Weather Forecast

Almanac

Astronomy

May. 03, 2015 Rise Set
Actual Time
Civil Twilight
Nautical Twilight
Astronomical Twilight
Moon
Length of Visible Light
Length of Day
Tomorrow will be .
, % of the Moon is Illuminated

Today's Extremes

State Highs State Lows

Community

WunderPhotos

Upload Photos

1,818,517 photos uploaded!

WunderBlogs® & News

Nearby

Air Quality

  Air Quality AQ Index Pollutant
Not available.

Snow Depth

Station Depth Elevation

Earthquake Activity

City Distance Mag. Time & Date
Minimum magnitude displayed is 2.5.

Coastal Water Temperatures

Place Temperature

Stations

Nearby Weather Stations

Station Location Temp. Windchill Dew Point Humidity Wind Precip. Elev Updated Type